Time;durP1;ratioP1;P1;durP2;ratioP2;P2;SDS_P1;SDS_P2;PMS_P1;PMS_P2;Temp;Humidity;BMP_temperature;BMP_pressure;BME280_temperature;BME280_humidity;BME280_pressure;Samples;Min_cycle;Max_cycle;Signal;HPM_P1;HPM_P2
2022/03/28 00:00:39;;;;;;;;;0.00;0.00;18.90;99.90;;;;;;5064346;28;9085;-46
2022/03/28 00:03:10;;;;;;;;;0.00;0.00;18.80;99.90;;;;;;5065704;28;9043;-45
2022/03/28 00:05:42;;;;;;;;;1.00;1.00;18.90;99.90;;;;;;5063460;28;9082;-43
2022/03/28 00:08:12;;;;;;;;;0.33;0.33;18.80;99.90;;;;;;5064670;28;9646;-48
2022/03/28 00:10:42;;;;;;;;;0.00;0.00;18.90;99.90;;;;;;5059893;28;8970;-46
2022/03/28 00:13:14;;;;;;;;;1.00;1.00;18.80;99.90;;;;;;5063101;28;9598;-45
2022/03/28 00:15:44;;;;;;;;;1.00;1.00;18.80;99.90;;;;;;5060360;28;9171;-46
2022/03/28 00:18:15;;;;;;;;;0.00;0.00;18.80;99.90;;;;;;5077471;28;9017;-43
2022/03/28 00:20:47;;;;;;;;;0.00;0.00;18.80;99.90;;;;;;5072506;28;9175;-47
2022/03/28 00:23:18;;;;;;;;;1.00;1.00;18.80;99.90;;;;;;5066441;28;8987;-43
2022/03/28 00:25:49;;;;;;;;;1.00;1.00;18.80;99.90;;;;;;5063090;28;9285;-46
2022/03/28 00:28:19;;;;;;;;;1.00;1.00;18.80;99.90;;;;;;5070596;28;9378;-46
2022/03/28 00:30:51;;;;;;;;;0.00;0.00;18.70;99.90;;;;;;5084359;27;9411;-44
2022/03/28 00:33:22;;;;;;;;;0.00;0.00;18.80;99.90;;;;;;5061123;28;9329;-43
2022/03/28 00:35:54;;;;;;;;;0.00;0.00;18.80;99.90;;;;;;5066468;28;9225;-45
2022/03/28 00:38:25;;;;;;;;;0.00;0.00;18.80;99.90;;;;;;5076653;28;9795;-45
2022/03/28 00:40:56;;;;;;;;;0.00;0.00;18.80;99.90;;;;;;5068240;28;9441;-44
2022/03/28 00:43:27;;;;;;;;;0.00;0.00;18.80;99.90;;;;;;5066096;28;10047;-44
2022/03/28 00:45:58;;;;;;;;;0.00;0.00;18.70;99.90;;;;;;5061119;28;9182;-43
2022/03/28 00:48:28;;;;;;;;;0.00;0.00;18.70;99.90;;;;;;5063658;28;9345;-42
2022/03/28 00:50:59;;;;;;;;;0.00;0.00;18.70;99.90;;;;;;5061690;28;9417;-43
2022/03/28 00:53:29;;;;;;;;;0.00;0.00;18.70;99.90;;;;;;5066017;28;9393;-45
2022/03/28 00:55:59;;;;;;;;;0.00;0.00;18.70;99.90;;;;;;5066004;28;9300;-45
2022/03/28 00:58:30;;;;;;;;;0.00;0.00;18.60;99.90;;;;;;5060334;28;9235;-43
2022/03/28 01:01:01;;;;;;;;;0.00;0.00;18.70;99.90;;;;;;5062441;28;9345;-42
2022/03/28 01:03:31;;;;;;;;;0.00;0.00;18.70;99.90;;;;;;5072416;28;9888;-43
2022/03/28 01:06:02;;;;;;;;;0.00;0.00;18.60;99.90;;;;;;5062256;28;9315;-45
2022/03/28 01:08:34;;;;;;;;;0.00;0.00;18.70;99.90;;;;;;5057818;28;9439;-43
2022/03/28 01:11:09;;;;;;;;;0.00;0.00;18.60;99.90;;;;;;5061960;28;9532;-47
2022/03/28 01:13:42;;;;;;;;;0.00;0.00;18.60;99.90;;;;;;5065279;28;9321;-44
2022/03/28 01:16:13;;;;;;;;;0.00;0.00;18.60;99.90;;;;;;5067619;28;10194;-44
2022/03/28 01:18:49;;;;;;;;;0.00;0.00;18.60;99.90;;;;;;5068445;28;9247;-45
2022/03/28 01:21:20;;;;;;;;;0.00;0.00;18.60;99.90;;;;;;5069861;28;9445;-44
2022/03/28 01:23:51;;;;;;;;;0.00;0.00;18.60;99.90;;;;;;5064357;28;9602;-43
2022/03/28 01:26:22;;;;;;;;;0.00;0.00;18.60;99.90;;;;;;5062064;28;9716;-44
2022/03/28 01:28:52;;;;;;;;;0.00;0.00;18.60;99.90;;;;;;5069073;28;9755;-42
2022/03/28 01:31:24;;;;;;;;;0.50;0.50;18.50;99.90;;;;;;5064816;28;9761;-44
2022/03/28 01:33:54;;;;;;;;;1.25;1.25;18.50;99.90;;;;;;5068377;28;10684;-46
2022/03/28 01:36:25;;;;;;;;;2.00;2.00;18.50;99.90;;;;;;5070819;28;10179;-45
2022/03/28 01:38:56;;;;;;;;;1.00;0.75;18.50;99.90;;;;;;5065196;28;10499;-41
2022/03/28 01:41:27;;;;;;;;;2.75;2.75;18.50;99.90;;;;;;5066324;28;10333;-43
2022/03/28 01:43:57;;;;;;;;;5.00;5.00;18.40;99.90;;;;;;5066359;28;10258;-42
2022/03/28 01:46:27;;;;;;;;;8.75;8.75;18.40;99.90;;;;;;5069835;28;10104;-44
2022/03/28 01:48:58;;;;;;;;;12.75;12.75;18.40;99.90;;;;;;5068635;28;10747;-43
2022/03/28 01:51:29;;;;;;;;;15.00;15.00;18.40;99.90;;;;;;5069929;28;10597;-44
2022/03/28 01:54:02;;;;;;;;;10.50;10.50;18.40;99.90;;;;;;5075645;28;10684;-45
2022/03/28 01:56:34;;;;;;;;;8.00;8.00;18.40;99.90;;;;;;5068960;28;10740;-43
2022/03/28 01:59:06;;;;;;;;;5.25;5.25;18.40;99.90;;;;;;5065232;28;11470;-44
2022/03/28 02:01:38;;;;;;;;;4.25;4.25;18.30;99.90;;;;;;5069289;28;10323;-45
2022/03/28 02:04:07;;;;;;;;;3.50;3.50;18.30;99.90;;;;;;5068066;28;10383;-42
2022/03/28 02:06:38;;;;;;;;;4.25;4.25;18.30;99.90;;;;;;5070798;28;10089;-42
2022/03/28 02:09:09;;;;;;;;;4.25;4.25;18.30;99.90;;;;;;5072816;28;10184;-43
2022/03/28 02:11:40;;;;;;;;;4.50;4.50;18.30;99.90;;;;;;5076819;28;10127;-42
2022/03/28 02:14:11;;;;;;;;;4.50;4.50;18.30;99.90;;;;;;5071749;28;10252;-43
2022/03/28 02:16:44;;;;;;;;;5.50;5.50;18.30;99.90;;;;;;5073922;28;10011;-45
2022/03/28 02:19:14;;;;;;;;;4.50;4.50;18.20;99.90;;;;;;5072860;28;9989;-44
2022/03/28 02:21:45;;;;;;;;;5.50;5.50;18.10;99.90;;;;;;5063563;28;10719;-42
2022/03/28 02:24:16;;;;;;;;;5.75;5.75;18.20;99.90;;;;;;5075131;28;9885;-42
2022/03/28 02:26:46;;;;;;;;;6.25;6.25;18.20;99.90;;;;;;5083520;28;9945;-42
2022/03/28 02:29:16;;;;;;;;;6.75;6.75;18.10;99.90;;;;;;5065298;28;10725;-41
2022/03/28 02:31:47;;;;;;;;;4.75;4.75;18.10;99.90;;;;;;5071718;28;10022;-45
2022/03/28 02:34:17;;;;;;;;;4.50;4.50;18.10;99.90;;;;;;5068361;28;10664;-45
2022/03/28 02:36:48;;;;;;;;;1.00;1.00;18.10;99.90;;;;;;5074280;28;10108;-44
2022/03/28 02:39:20;;;;;;;;;0.00;0.00;18.10;99.90;;;;;;5073881;28;10064;-43
2022/03/28 02:41:50;;;;;;;;;0.00;0.00;18.10;99.90;;;;;;5073903;28;10260;-42
2022/03/28 02:44:21;;;;;;;;;0.00;0.00;18.10;99.90;;;;;;5061947;28;9512;-43
2022/03/28 02:46:52;;;;;;;;;0.00;0.00;18.00;99.90;;;;;;5072457;28;9667;-42
2022/03/28 02:49:23;;;;;;;;;0.00;0.00;18.00;99.90;;;;;;5073010;28;10397;-43
2022/03/28 02:51:54;;;;;;;;;0.00;0.00;17.80;99.90;;;;;;5073933;28;9701;-42
2022/03/28 02:54:25;;;;;;;;;0.00;0.00;17.80;99.90;;;;;;5067172;28;9931;-44
2022/03/28 02:56:55;;;;;;;;;0.00;0.00;17.70;99.90;;;;;;5064118;28;9780;-46
2022/03/28 02:59:25;;;;;;;;;0.00;0.00;17.70;99.90;;;;;;5071388;28;9814;-44
2022/03/28 03:01:56;;;;;;;;;0.00;0.00;17.70;99.90;;;;;;5070999;28;9740;-44
2022/03/28 03:04:28;;;;;;;;;0.00;0.00;17.70;99.90;;;;;;5071950;28;9859;-41
2022/03/28 03:06:59;;;;;;;;;0.25;0.25;17.70;99.90;;;;;;5070997;28;10024;-41
2022/03/28 03:09:30;;;;;;;;;0.75;0.75;17.60;99.90;;;;;;5076540;28;11297;-42
2022/03/28 03:12:00;;;;;;;;;2.50;2.50;17.60;99.90;;;;;;5073650;28;9788;-42
2022/03/28 03:14:30;;;;;;;;;6.25;6.25;17.50;99.90;;;;;;5064831;28;10368;-44
2022/03/28 03:17:01;;;;;;;;;8.50;8.50;17.50;99.90;;;;;;5068302;28;11618;-42
2022/03/28 03:19:32;;;;;;;;;9.50;9.50;17.50;99.90;;;;;;5081308;28;10398;-42
2022/03/28 03:22:03;;;;;;;;;8.75;8.75;17.50;99.90;;;;;;5069638;28;10433;-41
2022/03/28 03:24:34;;;;;;;;;10.00;10.00;17.50;99.90;;;;;;5080622;28;10339;-42
2022/03/28 03:27:06;;;;;;;;;9.75;9.75;17.40;99.90;;;;;;5078712;28;10445;-46
2022/03/28 03:29:37;;;;;;;;;9.00;9.00;17.40;99.90;;;;;;5074006;28;10426;-41
2022/03/28 03:32:10;;;;;;;;;10.00;10.00;17.40;99.90;;;;;;5068229;28;10478;-43
2022/03/28 03:34:39;;;;;;;;;9.50;9.50;17.40;99.90;;;;;;5064379;28;10615;-43
2022/03/28 03:37:11;;;;;;;;;10.25;10.25;17.40;99.90;;;;;;5078721;28;10627;-41
2022/03/28 03:39:42;;;;;;;;;7.75;7.75;17.40;99.90;;;;;;5070660;27;10618;-44
2022/03/28 03:42:13;;;;;;;;;4.50;4.50;17.40;99.90;;;;;;5073723;28;11193;-41
2022/03/28 03:44:45;;;;;;;;;1.50;1.50;17.30;99.90;;;;;;5065721;28;11330;-42
2022/03/28 03:47:16;;;;;;;;;0.50;0.50;17.30;99.90;;;;;;5065480;28;10411;-41
2022/03/28 03:49:48;;;;;;;;;0.00;0.00;17.30;99.90;;;;;;5067605;28;10372;-43
2022/03/28 03:52:18;;;;;;;;;0.00;0.00;17.30;99.90;;;;;;5076064;28;10207;-45
2022/03/28 03:54:48;;;;;;;;;0.00;0.00;17.30;99.90;;;;;;5067961;28;10070;-42
2022/03/28 03:57:20;;;;;;;;;0.00;0.00;17.20;99.90;;;;;;5057535;28;10016;-43
2022/03/28 03:59:50;;;;;;;;;0.00;0.00;17.20;99.90;;;;;;5064516;28;10196;-45
2022/03/28 04:02:21;;;;;;;;;0.00;0.00;17.20;99.90;;;;;;5063092;28;9984;-43
2022/03/28 04:04:52;;;;;;;;;0.00;0.00;17.10;99.90;;;;;;5065313;28;9850;-49
2022/03/28 04:07:23;;;;;;;;;0.00;0.00;17.10;99.90;;;;;;5065206;28;10124;-47
2022/03/28 04:09:54;;;;;;;;;0.00;0.00;17.10;99.90;;;;;;5063511;28;10221;-48
2022/03/28 04:12:24;;;;;;;;;0.00;0.00;17.10;99.90;;;;;;5065706;28;10281;-45
2022/03/28 04:14:58;;;;;;;;;0.00;0.00;17.10;99.90;;;;;;5071619;28;10051;-46
2022/03/28 04:17:28;;;;;;;;;0.00;0.00;17.10;99.90;;;;;;5064916;28;10181;-44
2022/03/28 04:19:59;;;;;;;;;0.00;0.00;17.00;99.90;;;;;;5067274;28;10058;-48
2022/03/28 04:22:30;;;;;;;;;0.00;0.00;17.00;99.90;;;;;;5061975;28;9970;-48
2022/03/28 04:25:03;;;;;;;;;0.00;0.00;17.00;99.90;;;;;;5064755;28;10250;-49
2022/03/28 04:27:35;;;;;;;;;0.00;0.00;17.00;99.90;;;;;;5056787;28;10103;-43
2022/03/28 04:30:09;;;;;;;;;0.00;0.00;16.90;99.90;;;;;;5059848;28;10127;-48
2022/03/28 04:32:41;;;;;;;;;0.00;0.00;16.90;99.90;;;;;;5060417;28;10051;-46
2022/03/28 04:35:12;;;;;;;;;0.00;0.00;16.90;99.90;;;;;;5066246;28;9990;-44
2022/03/28 04:37:45;;;;;;;;;0.00;0.00;16.90;99.90;;;;;;5061390;28;10195;-44
2022/03/28 04:40:17;;;;;;;;;0.00;0.00;16.80;99.90;;;;;;5064700;28;10152;-45
2022/03/28 04:42:48;;;;;;;;;0.00;0.00;16.80;99.90;;;;;;5059103;28;10408;-44
2022/03/28 04:45:19;;;;;;;;;0.00;0.00;16.80;99.90;;;;;;5067266;28;10253;-47
2022/03/28 04:47:50;;;;;;;;;0.00;0.00;16.80;99.90;;;;;;5066111;28;10298;-48
2022/03/28 04:50:23;;;;;;;;;0.00;0.00;16.70;99.90;;;;;;5074071;28;9921;-46
2022/03/28 04:52:55;;;;;;;;;0.00;0.00;16.70;99.90;;;;;;5063116;28;10330;-46
2022/03/28 04:55:32;;;;;;;;;0.00;0.00;16.70;99.90;;;;;;5057676;28;10088;-45
2022/03/28 04:58:03;;;;;;;;;0.00;0.00;16.70;99.90;;;;;;5053288;28;10318;-46
2022/03/28 05:00:33;;;;;;;;;0.00;0.00;16.70;99.90;;;;;;5059040;28;10228;-43
2022/03/28 05:03:04;;;;;;;;;0.00;0.00;16.60;99.90;;;;;;5056433;28;10862;-45
2022/03/28 05:05:35;;;;;;;;;0.00;0.00;16.60;99.90;;;;;;5059029;28;11168;-44
2022/03/28 05:08:05;;;;;;;;;0.00;0.00;16.60;99.90;;;;;;5068095;28;10178;-47
2022/03/28 05:10:40;;;;;;;;;0.00;0.00;16.50;99.90;;;;;;5070819;28;10253;-44
2022/03/28 05:13:11;;;;;;;;;0.00;0.00;16.60;99.90;;;;;;5078051;27;10319;-46
2022/03/28 05:15:41;;;;;;;;;0.00;0.00;16.50;99.90;;;;;;5070331;28;10453;-46
2022/03/28 05:18:10;;;;;;;;;0.00;0.00;16.50;99.90;;;;;;5076447;28;10308;-46
2022/03/28 05:20:41;;;;;;;;;0.00;0.00;16.50;99.90;;;;;;5069470;28;10273;-45
2022/03/28 05:23:11;;;;;;;;;0.00;0.00;16.50;99.90;;;;;;5063611;28;11127;-46
2022/03/28 05:25:43;;;;;;;;;0.00;0.00;16.40;99.90;;;;;;5070498;28;10963;-47
2022/03/28 05:28:14;;;;;;;;;0.00;0.00;16.40;99.90;;;;;;5076842;28;10174;-45
2022/03/28 05:30:44;;;;;;;;;0.00;0.00;16.40;99.90;;;;;;5063915;28;10387;-49
2022/03/28 05:33:17;;;;;;;;;0.00;0.00;16.40;99.90;;;;;;5072060;28;10561;-45
2022/03/28 05:35:47;;;;;;;;;0.00;0.00;16.30;99.90;;;;;;5064859;28;10467;-45
2022/03/28 05:38:19;;;;;;;;;0.00;0.00;16.30;99.90;;;;;;5069877;28;10465;-45
2022/03/28 05:40:49;;;;;;;;;0.00;0.00;16.30;99.90;;;;;;5066902;28;10381;-45
2022/03/28 05:43:21;;;;;;;;;1.25;0.00;16.30;99.90;;;;;;5069012;28;10388;-46
2022/03/28 05:45:52;;;;;;;;;0.00;0.00;16.30;99.90;;;;;;5059379;28;10516;-46
2022/03/28 05:48:22;;;;;;;;;0.00;0.00;16.30;99.90;;;;;;5077458;28;10368;-47
2022/03/28 05:50:54;;;;;;;;;0.00;0.00;16.30;99.90;;;;;;5072978;28;10574;-47
2022/03/28 05:53:24;;;;;;;;;0.00;0.00;16.20;99.90;;;;;;5073948;28;10442;-46
2022/03/28 05:55:55;;;;;;;;;0.00;0.00;16.20;99.90;;;;;;5063109;28;11266;-46
2022/03/28 05:58:26;;;;;;;;;0.00;0.00;16.20;99.90;;;;;;5062984;28;10487;-48
2022/03/28 06:00:58;;;;;;;;;0.00;0.00;16.10;99.90;;;;;;5067591;28;11155;-49
2022/03/28 06:03:30;;;;;;;;;0.00;0.00;16.00;99.90;;;;;;5080885;28;10437;-47
2022/03/28 06:06:08;;;;;;;;;0.00;0.00;16.00;99.90;;;;;;5075294;28;10437;-46
2022/03/28 06:08:38;;;;;;;;;0.00;0.00;16.00;99.90;;;;;;5070001;28;10361;-47
2022/03/28 06:11:09;;;;;;;;;0.00;0.00;16.00;99.90;;;;;;5073477;28;10464;-47
2022/03/28 06:13:42;;;;;;;;;0.00;0.00;16.00;99.90;;;;;;5068135;28;10549;-47
2022/03/28 06:16:13;;;;;;;;;0.00;0.00;16.00;99.90;;;;;;5063079;28;10682;-49
2022/03/28 06:18:44;;;;;;;;;0.00;0.00;16.00;99.90;;;;;;5064783;28;10551;-48
2022/03/28 06:21:14;;;;;;;;;0.00;0.00;16.00;99.90;;;;;;5081077;28;10856;-48
2022/03/28 06:23:51;;;;;;;;;0.00;0.00;16.00;99.90;;;;;;5062427;28;10426;-47
2022/03/28 06:26:21;;;;;;;;;0.00;0.00;16.00;99.90;;;;;;5066368;28;10509;-46
2022/03/28 06:28:51;;;;;;;;;0.00;0.00;15.90;99.90;;;;;;5068649;28;10516;-46
2022/03/28 06:31:21;;;;;;;;;0.00;0.00;15.90;99.90;;;;;;5074722;28;10751;-46
2022/03/28 06:33:57;;;;;;;;;0.00;0.00;15.90;99.90;;;;;;5075988;28;10422;-45
2022/03/28 06:36:29;;;;;;;;;0.00;0.00;15.90;99.90;;;;;;5065067;28;10580;-48
2022/03/28 06:39:02;;;;;;;;;0.00;0.00;15.90;99.90;;;;;;5070122;28;10600;-48
2022/03/28 06:41:33;;;;;;;;;0.00;0.00;15.90;99.90;;;;;;5087927;28;10415;-46
2022/03/28 06:44:05;;;;;;;;;0.00;0.00;15.90;99.90;;;;;;5075311;28;11077;-48
2022/03/28 06:46:36;;;;;;;;;0.00;0.00;15.90;99.90;;;;;;5079679;28;10446;-48
2022/03/28 06:49:08;;;;;;;;;0.00;0.00;15.90;99.90;;;;;;5069751;28;10128;-48
2022/03/28 06:51:38;;;;;;;;;0.00;0.00;15.90;99.90;;;;;;5084002;28;10411;-45
2022/03/28 06:54:13;;;;;;;;;0.00;0.00;15.90;99.90;;;;;;5076879;28;10486;-48
2022/03/28 06:56:45;;;;;;;;;0.00;0.00;15.90;99.90;;;;;;5082051;28;10401;-48
2022/03/28 06:59:19;;;;;;;;;0.00;0.00;15.90;99.90;;;;;;5075089;28;11182;-45
2022/03/28 07:01:51;;;;;;;;;0.00;0.00;15.90;99.90;;;;;;5068696;28;10355;-51
2022/03/28 07:04:22;;;;;;;;;0.00;0.00;15.90;99.90;;;;;;5071098;28;10422;-49
2022/03/28 07:06:53;;;;;;;;;0.00;0.00;15.80;99.90;;;;;;5073404;28;10225;-49
2022/03/28 07:09:23;;;;;;;;;0.00;0.00;15.80;99.90;;;;;;5073165;28;10382;-46
2022/03/28 07:11:53;;;;;;;;;0.00;0.00;15.80;99.90;;;;;;5078184;28;10373;-48
2022/03/28 07:14:23;;;;;;;;;0.00;0.00;15.80;99.90;;;;;;5070390;28;10402;-46
2022/03/28 07:16:53;;;;;;;;;0.00;0.00;15.80;99.90;;;;;;5077306;28;10576;-48
2022/03/28 07:19:25;;;;;;;;;0.00;0.00;15.80;99.90;;;;;;5079095;28;10513;-46
2022/03/28 07:21:56;;;;;;;;;0.00;0.00;15.80;99.90;;;;;;5074634;28;10626;-47
2022/03/28 07:24:27;;;;;;;;;0.00;0.00;15.80;99.90;;;;;;5082542;28;10691;-47
2022/03/28 07:26:58;;;;;;;;;0.00;0.00;15.70;99.90;;;;;;5079171;28;11412;-46
2022/03/28 07:29:28;;;;;;;;;0.00;0.00;15.70;99.90;;;;;;5071045;28;11131;-46
2022/03/28 07:31:59;;;;;;;;;0.00;0.00;15.70;99.90;;;;;;5077674;28;10585;-48
2022/03/28 07:34:29;;;;;;;;;0.00;0.00;15.70;99.90;;;;;;5074539;28;10833;-49
2022/03/28 07:37:09;;;;;;;;;0.00;0.00;15.70;99.90;;;;;;5071862;28;10748;-46
2022/03/28 07:39:40;;;;;;;;;0.00;0.00;15.70;99.90;;;;;;5078306;28;10613;-47
2022/03/28 07:42:11;;;;;;;;;0.00;0.00;15.70;99.90;;;;;;5077983;28;10662;-48
2022/03/28 07:44:42;;;;;;;;;2.00;2.00;15.60;99.90;;;;;;5075299;28;10583;-50
2022/03/28 07:47:14;;;;;;;;;2.00;2.00;15.60;99.90;;;;;;5074254;28;10900;-47
2022/03/28 07:49:43;;;;;;;;;0.00;0.00;15.60;99.90;;;;;;5072090;28;10882;-50
2022/03/28 07:52:14;;;;;;;;;0.00;0.00;15.60;99.90;;;;;;5076371;28;10567;-46
2022/03/28 07:54:48;;;;;;;;;0.00;0.00;15.60;99.90;;;;;;5067566;28;10830;-46
2022/03/28 07:57:20;;;;;;;;;0.00;0.00;15.60;99.90;;;;;;5068043;27;10772;-48
2022/03/28 07:59:50;;;;;;;;;0.00;0.00;15.60;99.90;;;;;;5070699;28;11316;-48
2022/03/28 08:02:40;;;;;;;;;0.00;0.00;15.50;99.90;;;;;;5085165;28;10638;-46
2022/03/28 08:05:12;;;;;;;;;0.00;0.00;15.60;99.90;;;;;;5074978;28;10575;-47
2022/03/28 08:07:42;;;;;;;;;0.00;0.00;15.50;99.90;;;;;;5075871;28;10637;-46
2022/03/28 08:10:14;;;;;;;;;0.00;0.00;15.50;99.90;;;;;;5061333;28;10724;-45
2022/03/28 08:12:46;;;;;;;;;0.00;0.00;15.50;99.90;;;;;;5073753;28;10737;-49
2022/03/28 08:15:18;;;;;;;;;0.00;0.00;15.50;99.90;;;;;;5067746;27;10538;-48
2022/03/28 08:17:50;;;;;;;;;1.00;0.00;15.50;99.90;;;;;;5078611;28;11371;-49
2022/03/28 08:20:21;;;;;;;;;0.00;0.00;15.50;99.90;;;;;;5070064;28;10588;-46
2022/03/28 08:22:54;;;;;;;;;0.00;0.00;15.50;99.90;;;;;;5077092;28;10510;-46
2022/03/28 08:25:25;;;;;;;;;0.00;0.00;15.50;99.90;;;;;;5069297;28;11448;-49
2022/03/28 08:27:55;;;;;;;;;1.00;0.00;15.40;99.90;;;;;;5068094;28;10483;-47
2022/03/28 08:30:26;;;;;;;;;0.00;0.00;15.50;99.90;;;;;;5069723;28;10591;-48
2022/03/28 08:32:56;;;;;;;;;0.00;0.00;15.40;99.90;;;;;;5064588;28;10653;-49
2022/03/28 08:35:27;;;;;;;;;0.00;0.00;15.40;99.90;;;;;;5063429;28;10489;-46
2022/03/28 08:37:58;;;;;;;;;0.00;0.00;15.40;99.90;;;;;;5078211;28;10756;-46
2022/03/28 08:40:28;;;;;;;;;0.00;0.00;15.40;99.90;;;;;;5069684;28;10803;-48
2022/03/28 08:43:03;;;;;;;;;0.00;0.00;15.40;99.90;;;;;;5069469;28;10599;-46
2022/03/28 08:45:41;;;;;;;;;1.25;0.50;15.40;99.90;;;;;;5067589;28;10652;-48
2022/03/28 08:48:16;;;;;;;;;0.00;0.00;15.40;99.90;;;;;;5065361;28;10622;-45
2022/03/28 08:50:50;;;;;;;;;0.00;0.00;15.40;99.90;;;;;;5078214;28;11227;-46
2022/03/28 08:53:21;;;;;;;;;0.00;0.00;15.40;99.90;;;;;;5068391;28;10679;-48
2022/03/28 08:55:52;;;;;;;;;0.00;0.00;15.40;99.90;;;;;;5070955;28;10662;-46
2022/03/28 08:58:23;;;;;;;;;0.00;0.00;15.40;99.90;;;;;;5070370;28;11381;-50
2022/03/28 09:00:54;;;;;;;;;0.00;0.00;15.40;99.90;;;;;;5073009;28;10616;-46
2022/03/28 09:03:47;;;;;;;;;0.00;0.00;15.30;99.90;;;;;;5066726;28;10524;-47
2022/03/28 09:06:36;;;;;;;;;0.00;0.00;15.30;99.90;;;;;;5061225;28;10445;-46
2022/03/28 09:09:19;;;;;;;;;0.00;0.00;15.30;99.90;;;;;;5069679;28;10525;-49
2022/03/28 09:11:56;;;;;;;;;0.00;0.00;15.30;99.90;;;;;;5071299;28;10560;-50
2022/03/28 09:14:36;;;;;;;;;0.00;0.00;15.30;99.90;;;;;;5072502;28;10701;-45
2022/03/28 09:17:09;;;;;;;;;0.00;0.00;15.30;99.90;;;;;;5072627;28;10506;-46
2022/03/28 09:19:58;;;;;;;;;0.00;0.00;15.30;99.90;;;;;;5078758;28;11393;-48
2022/03/28 09:22:36;;;;;;;;;0.00;0.00;15.30;99.90;;;;;;5073283;28;10741;-47
2022/03/28 09:25:13;;;;;;;;;1.00;0.00;15.30;99.90;;;;;;5076080;28;10730;-48
2022/03/28 09:27:47;;;;;;;;;0.00;0.00;15.30;99.90;;;;;;5065129;28;10722;-48
2022/03/28 09:30:21;;;;;;;;;0.00;0.00;15.30;99.90;;;;;;5069962;28;10617;-47
2022/03/28 09:32:52;;;;;;;;;0.00;0.00;15.30;99.90;;;;;;5068992;28;10760;-48
2022/03/28 09:35:27;;;;;;;;;0.00;0.00;15.30;99.90;;;;;;5068204;28;10589;-50
2022/03/28 09:38:04;;;;;;;;;0.00;0.00;15.30;99.90;;;;;;5071844;28;10559;-49
2022/03/28 09:40:43;;;;;;;;;0.00;0.00;15.30;99.90;;;;;;5076733;28;10485;-46
2022/03/28 09:43:30;;;;;;;;;0.00;0.00;15.30;99.90;;;;;;5060982;28;10629;-45
2022/03/28 09:46:01;;;;;;;;;0.00;0.00;15.30;99.90;;;;;;5074842;28;10613;-49
2022/03/28 09:48:33;;;;;;;;;0.00;0.00;15.30;99.90;;;;;;5075103;28;10556;-46
2022/03/28 09:51:05;;;;;;;;;0.00;0.00;15.30;99.90;;;;;;5077366;28;10580;-51
2022/03/28 09:53:39;;;;;;;;;0.00;0.00;15.30;99.90;;;;;;5068705;28;10662;-48
2022/03/28 09:56:11;;;;;;;;;0.00;0.00;15.30;99.90;;;;;;5069749;28;10611;-48
2022/03/28 09:58:48;;;;;;;;;0.00;0.00;15.30;99.90;;;;;;5076112;28;10475;-48
2022/03/28 10:01:30;;;;;;;;;5.00;3.25;15.30;99.90;;;;;;5063975;28;10749;-46
2022/03/28 10:04:09;;;;;;;;;9.25;8.75;15.30;99.90;;;;;;5074314;28;10861;-48
2022/03/28 10:06:40;;;;;;;;;9.00;7.50;15.20;99.90;;;;;;5070557;28;10871;-45
2022/03/28 10:09:10;;;;;;;;;1.00;1.00;15.30;99.90;;;;;;5070953;28;10926;-46
2022/03/28 10:11:43;;;;;;;;;0.00;0.00;15.20;99.90;;;;;;5079214;28;11488;-47
2022/03/28 10:14:14;;;;;;;;;0.00;0.00;15.20;99.90;;;;;;5072362;28;10617;-48
2022/03/28 10:16:47;;;;;;;;;0.00;0.00;15.20;99.90;;;;;;5077250;28;10479;-47
2022/03/28 10:19:19;;;;;;;;;0.00;0.00;15.20;99.90;;;;;;5071333;28;10607;-47
2022/03/28 10:21:50;;;;;;;;;0.00;0.00;15.20;99.90;;;;;;5077333;28;10578;-49
2022/03/28 10:24:25;;;;;;;;;0.00;0.00;15.20;99.90;;;;;;5079436;28;11225;-46
2022/03/28 10:26:57;;;;;;;;;0.00;0.00;15.20;99.90;;;;;;5072405;28;10703;-47
2022/03/28 10:29:46;;;;;;;;;0.00;0.00;15.20;99.90;;;;;;5065513;28;10784;-46
2022/03/28 10:32:23;;;;;;;;;0.00;0.00;15.20;99.90;;;;;;5073132;28;10997;-46
2022/03/28 10:35:01;;;;;;;;;0.00;0.00;15.20;99.90;;;;;;5072140;28;10556;-50
2022/03/28 10:37:38;;;;;;;;;0.00;0.00;15.20;99.90;;;;;;5069852;28;10627;-45
2022/03/28 10:40:47;;;;;;;;;0.00;0.00;15.20;99.90;;;;;;5076421;28;10536;-48
2022/03/28 10:43:19;;;;;;;;;0.00;0.00;15.20;99.90;;;;;;5070839;28;10692;-45
2022/03/28 10:45:50;;;;;;;;;0.00;0.00;15.10;99.90;;;;;;5067601;28;10911;-46
2022/03/28 10:48:33;;;;;;;;;0.00;0.00;15.00;99.90;;;;;;5076237;28;10666;-46
2022/03/28 10:51:11;;;;;;;;;0.00;0.00;15.00;99.90;;;;;;5068875;28;10791;-47
2022/03/28 10:53:53;;;;;;;;;0.00;0.00;15.00;99.90;;;;;;5071076;28;10603;-45
2022/03/28 10:56:32;;;;;;;;;0.00;0.00;14.90;99.90;;;;;;5068006;28;10798;-48
2022/03/28 10:59:15;;;;;;;;;0.00;0.00;14.80;99.90;;;;;;5080125;28;10636;-48
2022/03/28 11:01:53;;;;;;;;;0.00;0.00;14.70;99.90;;;;;;5075268;28;10632;-47
2022/03/28 11:04:23;;;;;;;;;0.00;0.00;14.70;99.90;;;;;;5077790;28;10669;-44
2022/03/28 11:07:04;;;;;;;;;0.00;0.00;14.70;99.90;;;;;;5073568;28;10892;-47
2022/03/28 11:09:35;;;;;;;;;0.00;0.00;14.60;99.90;;;;;;5069883;28;10776;-47
2022/03/28 11:12:17;;;;;;;;;0.50;0.50;14.60;99.90;;;;;;5071903;28;10865;-46
2022/03/28 11:14:54;;;;;;;;;0.00;0.00;14.60;99.90;;;;;;5067395;28;10930;-45
2022/03/28 11:17:37;;;;;;;;;1.00;0.00;14.60;99.90;;;;;;5073019;28;10940;-48
2022/03/28 11:20:15;;;;;;;;;0.00;0.00;14.60;99.90;;;;;;5069367;28;10876;-50
2022/03/28 11:22:47;;;;;;;;;0.00;0.00;14.60;99.90;;;;;;5068468;28;11787;-46
2022/03/28 11:25:46;;;;;;;;;0.00;0.00;14.60;99.90;;;;;;5072109;28;10893;-49
2022/03/28 11:28:15;;;;;;;;;0.00;0.00;14.50;99.90;;;;;;5077579;28;11107;-48
2022/03/28 11:30:51;;;;;;;;;0.00;0.00;14.50;99.90;;;;;;5060990;27;11033;-45
2022/03/28 11:33:24;;;;;;;;;0.50;0.00;14.50;99.90;;;;;;5069749;28;11982;-47
2022/03/28 11:36:03;;;;;;;;;1.00;0.00;14.50;99.90;;;;;;5069510;28;11565;-46
2022/03/28 11:38:43;;;;;;;;;0.00;0.00;14.50;99.90;;;;;;5067389;28;11075;-45
2022/03/28 11:41:14;;;;;;;;;0.00;0.00;14.40;99.90;;;;;;5065056;28;11067;-45
2022/03/28 11:43:49;;;;;;;;;0.00;0.00;14.40;99.90;;;;;;5067879;28;11004;-47
2022/03/28 11:46:32;;;;;;;;;0.00;0.00;14.40;99.90;;;;;;5067422;28;10946;-48
2022/03/28 11:49:12;;;;;;;;;1.00;1.00;14.40;99.90;;;;;;5071067;28;11186;-48
2022/03/28 11:51:44;;;;;;;;;0.00;0.00;14.40;99.90;;;;;;5067682;28;11480;-45
2022/03/28 11:54:20;;;;;;;;;0.00;0.00;14.40;99.90;;;;;;5063092;28;10952;-49
2022/03/28 11:59:42;;;;;;;;;0.00;0.00;14.40;99.90;;;;;;5070743;28;11089;-48
2022/03/28 12:02:12;;;;;;;;;0.25;0.25;14.30;99.90;;;;;;5077232;28;11027;-48
2022/03/28 12:04:49;;;;;;;;;0.00;0.00;14.30;99.90;;;;;;5067115;28;10962;-46
2022/03/28 12:07:19;;;;;;;;;0.00;0.00;14.20;99.90;;;;;;5066705;28;10870;-49
2022/03/28 12:09:49;;;;;;;;;0.00;0.00;14.20;99.90;;;;;;5066709;28;11139;-47
2022/03/28 12:12:18;;;;;;;;;0.00;0.00;14.20;99.90;;;;;;5076482;28;11241;-46
2022/03/28 12:14:48;;;;;;;;;0.00;0.00;14.20;99.90;;;;;;5066590;28;11181;-48
2022/03/28 12:17:27;;;;;;;;;0.00;0.00;14.20;99.90;;;;;;5065338;28;11140;-46
2022/03/28 12:20:06;;;;;;;;;1.50;0.00;14.10;99.90;;;;;;5067951;28;12103;-47
2022/03/28 12:22:47;;;;;;;;;0.00;0.00;14.10;99.90;;;;;;5065125;28;11429;-49
2022/03/28 12:25:38;;;;;;;;;0.00;0.00;14.10;99.90;;;;;;5070049;28;11408;-48
2022/03/28 12:28:11;;;;;;;;;0.00;0.00;14.00;99.90;;;;;;5075461;28;11312;-46
2022/03/28 12:30:52;;;;;;;;;0.00;0.00;14.10;99.90;;;;;;5061235;28;11095;-46
2022/03/28 12:33:26;;;;;;;;;0.00;0.00;14.00;99.90;;;;;;5069347;28;10990;-47
2022/03/28 12:36:05;;;;;;;;;0.75;0.75;14.00;99.90;;;;;;5069496;28;11232;-48
2022/03/28 12:38:44;;;;;;;;;0.00;0.00;13.90;99.90;;;;;;5065763;28;11167;-46
2022/03/28 12:41:15;;;;;;;;;0.00;0.00;13.90;99.90;;;;;;5074413;28;12340;-47
2022/03/28 12:43:52;;;;;;;;;0.50;0.50;13.90;99.90;;;;;;5074442;28;11486;-46
2022/03/28 12:46:24;;;;;;;;;2.00;0.25;13.90;99.90;;;;;;5069305;28;11955;-47
2022/03/28 12:48:57;;;;;;;;;0.00;0.00;13.90;99.90;;;;;;5068143;28;11127;-49
2022/03/28 12:51:31;;;;;;;;;1.00;0.00;13.90;99.90;;;;;;5078124;28;11448;-46
2022/03/28 12:54:13;;;;;;;;;0.00;0.00;13.90;99.90;;;;;;5062762;28;11421;-46
2022/03/28 12:56:52;;;;;;;;;0.00;0.00;13.90;99.90;;;;;;5070803;28;11421;-47
2022/03/28 12:59:32;;;;;;;;;0.00;0.00;13.90;99.90;;;;;;5068012;28;11451;-45
2022/03/28 13:02:18;;;;;;;;;0.50;0.00;13.80;99.90;;;;;;5072298;28;11045;-46
2022/03/28 13:04:50;;;;;;;;;2.00;0.00;13.80;99.90;;;;;;5065570;28;11424;-45
2022/03/28 13:07:23;;;;;;;;;0.00;0.00;13.80;99.90;;;;;;5076815;28;11868;-46
2022/03/28 13:09:57;;;;;;;;;2.25;2.25;13.80;99.90;;;;;;5069748;28;11522;-47
2022/03/28 13:12:44;;;;;;;;;1.00;1.00;13.70;99.90;;;;;;5078897;28;11413;-48
2022/03/28 13:15:23;;;;;;;;;1.00;1.00;13.70;99.90;;;;;;5060778;27;11447;-46
2022/03/28 13:18:08;;;;;;;;;0.50;0.50;13.70;99.90;;;;;;5071148;28;11431;-47
2022/03/28 13:20:47;;;;;;;;;0.00;0.00;13.70;99.90;;;;;;5068827;28;11432;-47